YHID

Horn Island Airport

Airport
ICAO code
YHID
IATA Code
HID
Summary
ICAO Region
APAC
ICAO Territory
Location

, Queensland

Serving
Horn Island
Elevation
43 ft
Coordinates
10° 35' 11" S , 142° 17' 24" E
Metar
Observation
YHID 262000Z AUTO 12012KT 9999 // BKN016 BKN021 28/24 Q1008
Station
HORN ISLAND
Date/Time
2022-09-26 20:00:00
Wind direction
120°
Wind speed
12 kts
Lowest cloud amount
broken clouds
Temperature
28°C
Dew point
24°C
Humidity
78%
QNH
1008 hPa
Weather condition
n/a

Airport map

Aerial View

SKYbrary Partners:

Safety knowledge contributed by: